Time;durP1;ratioP1;P1;durP2;ratioP2;P2;SDS_P1;SDS_P2;PMS_P1;PMS_P2;Temp;Humidity;BMP_temperature;BMP_pressure;BME280_temperature;BME280_humidity;BME280_pressure;Samples;Min_cycle;Max_cycle;Signal;HPM_P1;HPM_P2
2022/03/31 00:00:01;;;;;;;381.30;210.63;;;;;;;15.27;54.11;98675.16;341164;28;1819;-69
2022/03/31 00:00:12;;;;;;;380.73;213.10;;;;;;;15.26;54.04;98673.47;341292;29;860;-69
2022/03/31 00:00:22;;;;;;;383.45;209.27;;;;;;;15.27;53.79;98672.53;342624;28;1150;-69
2022/03/31 00:00:34;;;;;;;384.40;207.87;;;;;;;15.25;53.91;98670.00;343909;28;964;-69
2022/03/31 00:00:47;;;;;;;387.72;218.10;;;;;;;15.19;53.93;98662.56;343548;28;2212;-69
2022/03/31 00:00:57;;;;;;;388.35;225.05;;;;;;;15.16;54.34;98667.25;340918;28;2165;-69
2022/03/31 00:01:08;;;;;;;388.35;222.88;;;;;;;15.14;54.38;98663.88;341148;29;2107;-69
2022/03/31 00:01:18;;;;;;;385.20;215.37;;;;;;;15.17;54.22;98658.34;343991;28;872;-69
2022/03/31 00:01:29;;;;;;;386.48;215.85;;;;;;;15.18;54.43;98660.88;343973;28;1368;-69
2022/03/31 00:01:39;;;;;;;384.63;209.50;;;;;;;15.18;54.55;98667.94;343751;28;1927;-69
2022/03/31 00:01:50;;;;;;;383.63;209.48;;;;;;;15.15;54.27;98668.19;345116;28;1358;-69
2022/03/31 00:02:00;;;;;;;380.20;205.63;;;;;;;15.12;54.49;98655.25;342473;28;1263;-69
2022/03/31 00:02:10;;;;;;;382.10;212.27;;;;;;;15.10;54.40;98663.28;342599;28;946;-69
2022/03/31 00:02:21;;;;;;;385.70;214.23;;;;;;;15.11;54.47;98664.09;343991;28;932;-69
2022/03/31 00:02:32;;;;;;;388.47;214.17;;;;;;;15.11;54.28;98658.84;343905;28;817;-69
2022/03/31 00:02:42;;;;;;;387.23;208.95;;;;;;;15.13;54.60;98662.19;343847;28;1222;-69
2022/03/31 00:02:52;;;;;;;386.38;210.57;;;;;;;15.14;54.30;98658.63;345321;28;943;-69
2022/03/31 00:03:04;;;;;;;384.10;213.67;;;;;;;15.13;54.50;98662.19;344045;28;837;-69
2022/03/31 00:03:19;;;;;;;384.05;218.82;;;;;;;15.15;54.08;98660.28;343515;28;2042;-69
2022/03/31 00:03:29;;;;;;;379.90;211.90;;;;;;;15.15;54.49;98661.13;343841;28;1971;-69
2022/03/31 00:03:40;;;;;;;381.10;211.37;;;;;;;15.15;54.21;98655.03;343852;28;1204;-69
2022/03/31 00:03:50;;;;;;;380.95;207.27;;;;;;;15.16;54.37;98661.97;342630;28;836;-69
2022/03/31 00:04:00;;;;;;;380.43;206.60;;;;;;;15.19;54.50;98656.44;339981;29;1438;-69
2022/03/31 00:04:11;;;;;;;380.60;206.57;;;;;;;15.19;54.35;98659.06;340041;29;906;-69
2022/03/31 00:04:21;;;;;;;383.70;212.73;;;;;;;15.20;54.36;98658.97;341322;29;952;-69
2022/03/31 00:04:31;;;;;;;386.13;211.23;;;;;;;15.20;54.34;98666.88;341066;28;2000;-69
2022/03/31 00:04:42;;;;;;;384.63;210.75;;;;;;;15.22;54.24;98661.47;345157;28;1627;-69
2022/03/31 00:04:52;;;;;;;382.90;209.70;;;;;;;15.24;54.07;98664.84;342565;28;1694;-69
2022/03/31 00:05:03;;;;;;;381.83;210.18;;;;;;;15.26;54.11;98657.66;342553;28;1333;-69
2022/03/31 00:05:13;;;;;;;381.30;208.60;;;;;;;15.27;53.90;98664.63;343885;28;1775;-69
2022/03/31 00:05:24;;;;;;;382.38;210.98;;;;;;;15.29;54.07;98663.53;341331;29;972;-69
2022/03/31 00:05:34;;;;;;;383.07;215.43;;;;;;;15.29;53.99;98663.53;342524;28;1041;-70
2022/03/31 00:05:45;;;;;;;382.73;214.20;;;;;;;15.30;53.53;98659.13;341151;29;1242;-69
2022/03/31 00:05:55;;;;;;;381.65;209.65;;;;;;;15.22;53.89;98661.47;342642;28;909;-69
2022/03/31 00:06:06;;;;;;;382.00;205.67;;;;;;;15.23;54.00;98656.09;341172;29;935;-69
2022/03/31 00:06:16;;;;;;;386.20;213.07;;;;;;;15.27;53.82;98664.63;341169;29;2349;-69
2022/03/31 00:06:27;;;;;;;386.23;216.30;;;;;;;15.24;53.89;98664.84;343474;28;2041;-69
2022/03/31 00:06:37;;;;;;;386.77;218.00;;;;;;;15.27;53.82;98659.34;345140;28;1849;-69
2022/03/31 00:06:47;;;;;;;385.43;212.23;;;;;;;15.28;53.97;98655.75;343905;28;1201;-69
2022/03/31 00:06:58;;;;;;;388.63;212.57;;;;;;;15.28;53.84;98661.03;344063;28;953;-68
2022/03/31 00:07:08;;;;;;;386.58;208.93;;;;;;;15.27;53.81;98664.63;341241;29;973;-68
2022/03/31 00:07:19;;;;;;;385.47;209.83;;;;;;;15.26;53.38;98662.94;339985;28;1071;-68
2022/03/31 00:07:29;;;;;;;384.08;212.23;;;;;;;15.28;53.69;98663.66;342623;28;977;-68
2022/03/31 00:07:53;;;;;;;385.77;215.17;;;;;;;15.27;53.81;98660.19;346580;28;879;-68
2022/03/31 00:08:09;;;;;;;383.17;207.90;;;;;;;15.23;53.88;98664.00;345223;28;965;-68
2022/03/31 00:08:20;;;;;;;383.45;210.13;;;;;;;15.21;53.57;98667.72;340955;29;2031;-68
2022/03/31 00:08:30;;;;;;;386.08;211.68;;;;;;;15.18;53.96;98666.16;342523;28;921;-68
2022/03/31 00:08:40;;;;;;;388.35;216.77;;;;;;;15.19;54.21;98666.97;342596;28;879;-68
2022/03/31 00:08:51;;;;;;;387.70;215.90;;;;;;;15.18;54.23;98665.31;342578;28;1206;-68
2022/03/31 00:09:01;;;;;;;384.53;212.10;;;;;;;15.17;54.15;98664.47;342662;28;828;-68
2022/03/31 00:09:12;;;;;;;383.67;205.57;;;;;;;15.21;54.07;98672.97;345248;28;1260;-68
2022/03/31 00:09:22;;;;;;;383.43;202.77;;;;;;;15.21;53.98;98663.28;344814;28;2364;-68
2022/03/31 00:09:32;;;;;;;384.42;204.85;;;;;;;15.24;53.93;98667.47;344851;28;1627;-68
2022/03/31 00:09:43;;;;;;;384.40;209.33;;;;;;;15.24;53.93;98662.22;345317;28;864;-68
2022/03/31 00:09:53;;;;;;;383.73;207.38;;;;;;;15.25;54.22;98671.81;345213;28;1622;-68
2022/03/31 00:10:04;;;;;;;385.63;208.33;;;;;;;15.27;54.13;98672.53;343284;28;1799;-68
2022/03/31 00:10:24;;;;;;;386.73;210.35;;;;;;;15.28;53.72;98666.31;343919;28;862;-68
2022/03/31 00:10:36;;;;;;;384.10;213.30;;;;;;;15.21;54.11;98665.06;342598;28;1116;-68
2022/03/31 00:10:53;;;;;;;382.15;211.65;;;;;;;15.20;54.05;98669.50;341234;29;870;-68
2022/03/31 00:11:04;;;;;;;382.10;211.02;;;;;;;15.20;53.88;98679.22;343979;28;1410;-68
2022/03/31 00:11:14;;;;;;;381.97;207.30;;;;;;;15.18;53.95;98667.94;342671;28;896;-68
2022/03/31 00:11:25;;;;;;;379.63;200.73;;;;;;;15.20;53.95;98663.41;345249;28;1662;-68
2022/03/31 00:11:35;;;;;;;381.45;204.02;;;;;;;15.20;54.00;98669.50;343814;28;1436;-68
2022/03/31 00:11:45;;;;;;;381.97;203.23;;;;;;;15.20;53.75;98669.50;342635;28;893;-68
2022/03/31 00:11:59;;;;;;;381.35;206.88;;;;;;;15.19;53.56;98677.53;343872;28;1271;-68
2022/03/31 00:12:09;;;;;;;380.90;209.43;;;;;;;15.15;53.65;98676.94;343938;28;929;-68
2022/03/31 00:12:19;;;;;;;381.52;210.13;;;;;;;15.13;53.95;98678.00;342649;28;865;-68
2022/03/31 00:12:32;;;;;;;382.60;203.90;;;;;;;15.10;54.10;98678.25;342442;28;932;-69
2022/03/31 00:12:42;;;;;;;383.13;203.45;;;;;;;15.10;54.38;98678.25;342566;28;885;-68
2022/03/31 00:12:53;;;;;;;381.60;204.43;;;;;;;15.09;54.14;98672.13;343959;28;963;-68
2022/03/31 00:13:08;;;;;;;380.45;206.70;;;;;;;15.10;54.26;98672.97;342714;28;1013;-68
2022/03/31 00:13:21;;;;;;;378.15;203.45;;;;;;;15.06;54.17;98671.50;342575;28;934;-68
2022/03/31 00:13:31;;;;;;;380.40;202.25;;;;;;;15.03;54.25;98672.59;342623;28;786;-68
2022/03/31 00:13:42;;;;;;;385.07;205.73;;;;;;;15.02;54.14;98675.31;341339;29;904;-68
2022/03/31 00:13:52;;;;;;;385.67;208.75;;;;;;;15.02;54.33;98670.06;342618;28;965;-68
2022/03/31 00:14:03;;;;;;;383.43;209.90;;;;;;;15.02;54.24;98668.25;342665;28;845;-68
2022/03/31 00:14:13;;;;;;;379.80;207.63;;;;;;;15.06;53.97;98668.88;343029;28;1906;-68
2022/03/31 00:14:25;;;;;;;381.27;208.17;;;;;;;15.08;54.02;98664.34;343777;28;1592;-68
2022/03/31 00:14:35;;;;;;;384.20;203.63;;;;;;;15.08;54.14;98664.34;343977;28;1035;-68
2022/03/31 00:14:46;;;;;;;383.58;204.73;;;;;;;15.10;54.02;98667.69;341267;28;1377;-68
2022/03/31 00:14:56;;;;;;;381.67;205.10;;;;;;;15.07;54.16;98663.50;341066;29;1726;-68
2022/03/31 00:15:07;;;;;;;382.35;208.95;;;;;;;15.04;54.45;98662.88;342652;28;1238;-68
2022/03/31 00:15:17;;;;;;;384.60;209.23;;;;;;;15.01;54.39;98665.75;345052;28;1551;-68
2022/03/31 00:15:28;;;;;;;385.08;209.63;;;;;;;14.96;54.35;98666.09;345201;28;1018;-68
2022/03/31 00:15:39;;;;;;;382.50;214.13;;;;;;;14.91;54.33;98663.78;342620;28;883;-68
2022/03/31 00:15:49;;;;;;;382.07;215.83;;;;;;;14.90;54.67;98669.16;344023;28;938;-68
2022/03/31 00:16:00;;;;;;;382.08;210.45;;;;;;;14.87;54.49;98666.75;345246;28;853;-68
2022/03/31 00:16:10;;;;;;;384.87;207.47;;;;;;;14.82;54.96;98668.88;345362;28;889;-68
2022/03/31 00:16:21;;;;;;;383.90;205.17;;;;;;;14.81;54.81;98665.41;343291;28;1090;-68
2022/03/31 00:16:31;;;;;;;388.93;214.73;;;;;;;14.80;55.08;98663.72;342097;28;1849;-68
2022/03/31 00:16:41;;;;;;;388.58;214.50;;;;;;;14.78;55.07;98668.25;341598;28;2393;-68
2022/03/31 00:16:53;;;;;;;386.13;208.73;;;;;;;14.79;54.97;98667.31;340000;29;942;-68
2022/03/31 00:17:03;;;;;;;381.85;205.88;;;;;;;14.78;55.22;98662.16;342532;28;1291;-68
2022/03/31 00:17:14;;;;;;;383.53;205.30;;;;;;;14.76;55.10;98662.25;342654;28;827;-68
2022/03/31 00:17:24;;;;;;;383.67;207.82;;;;;;;14.79;54.87;98664.69;342634;28;1174;-69
2022/03/31 00:17:34;;;;;;;383.40;206.13;;;;;;;14.81;55.36;98657.50;342538;28;1184;-68
2022/03/31 00:17:45;;;;;;;380.23;204.30;;;;;;;14.83;54.92;98658.22;339985;29;1010;-68
2022/03/31 00:17:56;;;;;;;383.13;203.67;;;;;;;14.82;55.02;98653.91;341336;29;836;-68
2022/03/31 00:18:07;;;;;;;380.23;199.00;;;;;;;14.80;55.00;98655.81;341095;28;1570;-68
2022/03/31 00:18:17;;;;;;;382.63;203.20;;;;;;;14.81;55.09;98654.03;342697;28;834;-68
2022/03/31 00:18:29;;;;;;;384.23;206.18;;;;;;;14.83;55.30;98650.34;342477;28;859;-68
2022/03/31 00:18:40;;;;;;;386.02;208.60;;;;;;;14.84;55.15;98654.66;340011;29;944;-68
2022/03/31 00:18:50;;;;;;;384.43;209.30;;;;;;;14.87;54.84;98654.44;341675;28;1193;-68
2022/03/31 00:19:00;;;;;;;384.25;211.82;;;;;;;14.90;55.05;98651.56;342678;28;1837;-69
2022/03/31 00:19:11;;;;;;;387.13;216.97;;;;;;;14.94;54.75;98654.81;342685;28;1442;-69
2022/03/31 00:19:21;;;;;;;386.10;213.53;;;;;;;14.93;54.68;98651.34;342674;28;1517;-69
2022/03/31 00:19:32;;;;;;;383.42;206.50;;;;;;;14.89;54.92;98649.03;341187;28;1462;-69
2022/03/31 00:19:42;;;;;;;380.50;206.47;;;;;;;14.85;54.97;98652.84;345245;28;1191;-69
2022/03/31 00:19:52;;;;;;;383.55;210.27;;;;;;;14.82;54.65;98653.91;345145;28;2093;-69
2022/03/31 00:20:03;;;;;;;383.40;210.33;;;;;;;14.77;54.88;98653.41;342636;28;1189;-69
2022/03/31 00:20:14;;;;;;;383.45;209.55;;;;;;;14.72;55.24;98647.66;344028;28;1316;-69
2022/03/31 00:20:25;;;;;;;381.45;206.88;;;;;;;14.70;55.37;98646.94;343882;28;877;-68
2022/03/31 00:20:35;;;;;;;379.85;203.77;;;;;;;14.74;55.07;98658.91;342483;28;1390;-68
2022/03/31 00:20:46;;;;;;;377.57;198.07;;;;;;;14.77;55.13;98652.56;342584;28;1447;-68
2022/03/31 00:20:56;;;;;;;378.63;203.95;;;;;;;14.80;55.11;98653.19;342392;28;1851;-68
2022/03/31 00:21:07;;;;;;;381.25;201.20;;;;;;;14.83;54.83;98652.97;342638;28;1204;-68
2022/03/31 00:21:17;;;;;;;379.80;200.07;;;;;;;14.85;54.89;98653.69;339947;29;1300;-68
2022/03/31 00:21:27;;;;;;;380.57;199.73;;;;;;;14.86;55.09;98659.81;339893;29;1909;-68
2022/03/31 00:21:38;;;;;;;382.00;208.40;;;;;;;14.87;54.73;98649.16;341242;29;948;-68
2022/03/31 00:21:48;;;;;;;384.40;211.27;;;;;;;14.88;55.12;98653.47;341286;29;1520;-68
2022/03/31 00:21:59;;;;;;;381.63;210.27;;;;;;;14.89;54.70;98643.78;341010;29;1781;-68
2022/03/31 00:22:09;;;;;;;380.47;204.20;;;;;;;14.93;54.64;98653.97;341301;29;2862;-68
2022/03/31 00:22:20;;;;;;;382.85;207.13;;;;;;;14.94;54.81;98654.81;341349;29;1107;-68
2022/03/31 00:22:30;;;;;;;381.97;207.03;;;;;;;14.90;54.58;98651.56;342358;28;1371;-68
2022/03/31 00:22:41;;;;;;;379.48;203.18;;;;;;;14.86;54.79;98652.75;342531;28;1071;-68
2022/03/31 00:22:52;;;;;;;377.65;196.82;;;;;;;14.85;54.70;98653.69;342635;28;1442;-68
2022/03/31 00:23:03;;;;;;;376.88;192.63;;;;;;;14.80;54.85;98649.72;343971;28;892;-68
2022/03/31 00:23:14;;;;;;;377.15;198.80;;;;;;;14.76;55.42;98649.09;339881;29;1587;-68
2022/03/31 00:23:24;;;;;;;382.13;208.27;;;;;;;14.75;55.30;98654.47;342635;28;878;-68
2022/03/31 00:23:36;;;;;;;383.75;212.38;;;;;;;14.76;55.04;98661.44;342536;28;1981;-68
2022/03/31 00:23:47;;;;;;;385.83;207.48;;;;;;;14.76;55.23;98649.09;344818;28;2507;-68
2022/03/31 00:23:57;;;;;;;382.65;201.43;;;;;;;14.70;55.20;98648.75;345090;28;1100;-68
2022/03/31 00:24:08;;;;;;;382.93;202.03;;;;;;;14.69;55.25;98649.69;343782;28;1388;-68
2022/03/31 00:24:19;;;;;;;379.48;200.57;;;;;;;14.68;55.43;98645.38;341257;29;1121;-68
2022/03/31 00:24:29;;;;;;;379.80;203.17;;;;;;;14.63;55.59;98649.19;341131;29;851;-68
2022/03/31 00:24:40;;;;;;;379.27;202.70;;;;;;;14.60;55.74;98653.81;339987;29;898;-68
2022/03/31 00:24:50;;;;;;;379.90;203.32;;;;;;;14.54;55.62;98654.28;341104;29;1901;-68
2022/03/31 00:25:00;;;;;;;380.43;200.40;;;;;;;14.52;55.84;98650.91;339940;29;847;-68
2022/03/31 00:25:11;;;;;;;381.40;202.45;;;;;;;14.52;55.89;98651.75;340054;29;941;-68
2022/03/31 00:25:23;;;;;;;382.43;199.53;;;;;;;14.51;55.87;98649.22;342661;28;887;-68
2022/03/31 00:25:34;;;;;;;381.40;198.75;;;;;;;14.54;55.74;98654.28;342561;28;1095;-68
2022/03/31 00:25:44;;;;;;;380.63;194.40;;;;;;;14.51;56.07;98649.22;342529;28;1308;-68
2022/03/31 00:25:55;;;;;;;380.38;193.40;;;;;;;14.54;56.04;98654.28;343866;28;1408;-68
2022/03/31 00:26:05;;;;;;;381.80;196.87;;;;;;;14.55;55.78;98642.78;342613;28;1109;-68
2022/03/31 00:26:16;;;;;;;383.77;200.40;;;;;;;14.55;55.93;98653.31;342642;28;927;-68
2022/03/31 00:26:27;;;;;;;381.88;199.52;;;;;;;14.57;56.02;98638.25;342323;28;2059;-68
2022/03/31 00:26:37;;;;;;;377.40;194.23;;;;;;;14.60;55.85;98632.75;346608;28;880;-68
2022/03/31 00:26:48;;;;;;;377.40;197.20;;;;;;;14.65;55.71;98643.81;342552;28;1200;-68
2022/03/31 00:26:58;;;;;;;378.35;203.52;;;;;;;14.68;55.67;98638.31;343032;28;2170;-68
2022/03/31 00:27:09;;;;;;;382.30;204.40;;;;;;;14.72;55.54;98646.84;342604;28;898;-68
2022/03/31 00:27:19;;;;;;;384.00;204.05;;;;;;;14.75;55.60;98636.88;343910;28;1292;-68
2022/03/31 00:27:29;;;;;;;384.93;199.70;;;;;;;14.76;55.48;98641.19;342630;28;951;-68
2022/03/31 00:27:41;;;;;;;381.23;198.95;;;;;;;14.76;55.74;98640.34;342608;28;884;-68
2022/03/31 00:27:51;;;;;;;379.92;195.88;;;;;;;14.74;55.69;98643.09;343971;28;924;-68
2022/03/31 00:28:03;;;;;;;378.37;194.77;;;;;;;14.68;55.57;98643.59;342699;28;932;-68
2022/03/31 00:28:13;;;;;;;381.90;195.23;;;;;;;14.60;55.68;98638.88;340876;28;1563;-68
2022/03/31 00:28:26;;;;;;;381.92;196.10;;;;;;;14.55;55.95;98641.00;342523;28;941;-68
2022/03/31 00:28:36;;;;;;;382.55;198.45;;;;;;;14.54;56.23;98628.78;342544;28;2222;-68
2022/03/31 00:28:46;;;;;;;380.13;201.40;;;;;;;14.54;55.85;98636.69;344417;28;932;-68
2022/03/31 00:28:59;;;;;;;379.17;204.18;;;;;;;14.57;56.09;98632.97;345068;28;1422;-69
2022/03/31 00:29:09;;;;;;;378.88;202.80;;;;;;;14.60;55.94;98636.22;343345;28;976;-69
2022/03/31 00:29:20;;;;;;;378.23;200.13;;;;;;;14.60;55.86;98633.59;341226;28;1400;-69
2022/03/31 00:29:30;;;;;;;382.37;201.87;;;;;;;14.59;56.06;98638.97;346591;28;1240;-69
2022/03/31 00:29:40;;;;;;;382.85;202.25;;;;;;;14.55;55.83;98646.25;344573;28;1262;-69
2022/03/31 00:29:51;;;;;;;383.33;203.17;;;;;;;14.56;56.09;98640.03;344506;28;1272;-69
2022/03/31 00:30:02;;;;;;;382.93;201.67;;;;;;;14.53;56.16;98642.06;341312;29;1015;-69
2022/03/31 00:30:13;;;;;;;385.48;202.57;;;;;;;14.56;56.08;98647.09;342406;28;924;-69
2022/03/31 00:30:24;;;;;;;385.85;199.93;;;;;;;14.58;56.29;98632.03;342361;28;1295;-69
2022/03/31 00:30:35;;;;;;;380.75;194.43;;;;;;;14.61;56.00;98639.72;342547;28;1018;-68
2022/03/31 00:30:45;;;;;;;379.40;192.65;;;;;;;14.65;55.87;98638.53;343925;28;1128;-68
2022/03/31 00:30:56;;;;;;;375.50;186.57;;;;;;;14.68;55.75;98640.94;342525;28;1280;-68
2022/03/31 00:31:06;;;;;;;377.35;191.25;;;;;;;14.71;55.76;98638.09;341518;28;1930;-69
2022/03/31 00:31:16;;;;;;;378.57;192.07;;;;;;;14.73;55.63;98638.78;339794;28;2038;-69
2022/03/31 00:31:27;;;;;;;379.85;191.88;;;;;;;14.75;55.72;98641.31;342523;28;1787;-69
2022/03/31 00:31:39;;;;;;;381.00;189.33;;;;;;;14.71;55.59;98640.72;341292;29;880;-69
2022/03/31 00:31:49;;;;;;;377.50;183.32;;;;;;;14.73;56.15;98643.25;345535;28;1622;-69
2022/03/31 00:32:00;;;;;;;376.15;181.75;;;;;;;14.73;55.71;98637.97;343874;28;1225;-69
2022/03/31 00:32:10;;;;;;;376.10;184.37;;;;;;;14.72;55.62;98642.41;345242;28;1172;-69
2022/03/31 00:32:22;;;;;;;376.90;186.90;;;;;;;14.71;55.73;98640.72;343929;28;1199;-69
2022/03/31 00:32:33;;;;;;;378.67;189.13;;;;;;;14.72;56.05;98642.41;345102;28;1626;-69
2022/03/31 00:32:43;;;;;;;379.08;188.23;;;;;;;14.71;55.84;98638.09;343960;28;902;-69
2022/03/31 00:32:54;;;;;;;379.55;187.52;;;;;;;14.72;55.69;98647.66;343886;28;1351;-69
2022/03/31 00:33:04;;;;;;;379.67;188.67;;;;;;;14.73;55.66;98644.06;345295;28;1208;-69
2022/03/31 00:33:15;;;;;;;379.17;184.85;;;;;;;14.72;55.65;98647.66;339951;29;977;-69
2022/03/31 00:33:25;;;;;;;379.20;184.80;;;;;;;14.73;55.62;98654.59;343239;28;1729;-69
2022/03/31 00:33:36;;;;;;;376.90;183.77;;;;;;;14.70;55.66;98654.00;342444;28;958;-69
2022/03/31 00:33:46;;;;;;;376.02;182.32;;;;;;;14.70;55.73;98648.75;342640;28;1255;-69
2022/03/31 00:33:56;;;;;;;374.93;182.07;;;;;;;14.69;55.92;98655.78;342595;28;932;-69
2022/03/31 00:34:07;;;;;;;377.33;185.53;;;;;;;14.67;56.08;98654.22;342663;28;849;-67
2022/03/31 00:34:17;;;;;;;374.70;182.88;;;;;;;14.64;55.88;98650.03;343838;28;1514;-67
2022/03/31 00:34:28;;;;;;;374.27;182.87;;;;;;;14.61;56.03;98655.50;340253;29;1304;-69
2022/03/31 00:34:39;;;;;;;374.42;184.25;;;;;;;14.58;55.95;98658.38;341165;28;1788;-69
2022/03/31 00:34:50;;;;;;;376.17;184.83;;;;;;;14.57;56.18;98659.31;341229;28;1929;-69
2022/03/31 00:35:00;;;;;;;377.25;183.35;;;;;;;14.58;56.06;98650.47;341054;29;971;-69
2022/03/31 00:35:12;;;;;;;377.90;178.57;;;;;;;14.63;56.10;98658.88;345088;28;1158;-69
2022/03/31 00:35:23;;;;;;;379.33;181.75;;;;;;;14.67;55.93;98655.06;345071;28;1747;-69
2022/03/31 00:35:34;;;;;;;378.40;178.82;;;;;;;14.67;56.10;98649.81;345087;28;1212;-69
2022/03/31 00:35:44;;;;;;;374.97;180.83;;;;;;;14.63;55.90;98659.72;344248;28;2190;-69
2022/03/31 00:35:54;;;;;;;372.10;180.50;;;;;;;14.61;55.86;98651.09;343135;28;1302;-69
2022/03/31 00:36:05;;;;;;;371.73;179.60;;;;;;;14.60;56.11;98659.94;342583;28;1009;-69
2022/03/31 00:36:15;;;;;;;373.53;179.87;;;;;;;14.62;56.07;98657.19;342631;28;914;-69
2022/03/31 00:36:26;;;;;;;375.45;181.77;;;;;;;14.65;55.95;98654.34;342451;28;1463;-69
2022/03/31 00:36:36;;;;;;;377.00;183.97;;;;;;;14.66;55.93;98645.47;343821;28;1188;-69
2022/03/31 00:36:46;;;;;;;375.70;181.82;;;;;;;14.70;56.20;98648.75;343898;28;1204;-69
2022/03/31 00:36:57;;;;;;;375.37;179.20;;;;;;;14.72;56.03;98650.31;342664;28;839;-69
2022/03/31 00:37:07;;;;;;;373.75;177.70;;;;;;;14.73;55.82;98649.31;342670;28;889;-69
2022/03/31 00:37:18;;;;;;;376.47;181.40;;;;;;;14.73;55.92;98644.06;343902;28;1334;-69
2022/03/31 00:37:28;;;;;;;378.02;183.32;;;;;;;14.68;55.88;98651.47;340733;29;2181;-69
2022/03/31 00:37:43;;;;;;;377.63;183.23;;;;;;;14.63;55.91;98649.19;342624;28;964;-69
2022/03/31 00:37:53;;;;;;;373.80;178.43;;;;;;;14.63;56.04;98653.59;342572;28;953;-69
2022/03/31 00:38:04;;;;;;;371.98;177.75;;;;;;;14.63;55.76;98645.69;341356;29;897;-69
2022/03/31 00:38:14;;;;;;;374.93;184.37;;;;;;;14.62;55.96;98652.75;341799;28;2606;-69
2022/03/31 00:38:25;;;;;;;374.33;185.37;;;;;;;14.61;56.12;98651.09;343814;28;1086;-69
2022/03/31 00:38:35;;;;;;;374.00;184.23;;;;;;;14.58;56.19;98645.19;343930;28;916;-69
2022/03/31 00:39:28;;;;;;;372.53;179.17;;;;;;;14.57;56.30;98654.06;344497;28;1186;-69
2022/03/31 00:39:34;;;;;;;374.55;184.98;;;;;;;14.57;56.44;98659.31;343809;28;967;-69
2022/03/31 00:39:44;;;;;;;376.73;180.88;;;;;;;14.56;56.47;98663.75;341244;29;849;-69
2022/03/31 00:39:55;;;;;;;378.45;186.48;;;;;;;14.56;56.15;98652.38;343829;28;1199;-69
2022/03/31 00:40:06;;;;;;;377.15;182.82;;;;;;;14.57;56.09;98660.16;346632;28;1423;-69
2022/03/31 00:40:18;;;;;;;376.42;183.02;;;;;;;14.56;56.20;98660.25;345295;28;907;-69
2022/03/31 00:40:30;;;;;;;374.13;180.98;;;;;;;14.54;56.36;98662.16;342232;28;1119;-69
2022/03/31 00:40:40;;;;;;;374.73;183.90;;;;;;;14.50;56.43;98652.81;343035;28;2363;-69
2022/03/31 00:40:51;;;;;;;373.97;190.10;;;;;;;14.52;56.61;98661.44;346483;28;2191;-69
2022/03/31 00:41:01;;;;;;;375.38;186.43;;;;;;;14.54;56.30;98664.81;342538;28;1248;-69
2022/03/31 00:41:12;;;;;;;375.23;187.20;;;;;;;14.56;56.21;98663.75;341282;29;883;-69
2022/03/31 00:41:23;;;;;;;379.13;187.38;;;;;;;14.58;56.08;98663.63;338533;29;1288;-69
2022/03/31 00:41:37;;;;;;;380.70;192.02;;;;;;;14.61;56.44;98661.63;338609;29;2015;-69
2022/03/31 00:41:48;;;;;;;378.75;187.38;;;;;;;14.63;56.15;98662.34;341322;29;956;-69
2022/03/31 00:41:59;;;;;;;381.10;188.73;;;;;;;14.62;56.18;98667.72;343848;28;1403;-69
2022/03/31 00:42:10;;;;;;;378.52;185.75;;;;;;;14.57;56.12;98669.84;342617;28;1283;-69
2022/03/31 00:42:21;;;;;;;373.33;184.00;;;;;;;14.54;56.38;98670.06;341210;28;1197;-69
2022/03/31 00:42:41;;;;;;;373.65;182.45;;;;;;;14.56;56.49;98673.44;339897;29;866;-69
2022/03/31 00:42:53;;;;;;;374.48;183.73;;;;;;;14.55;56.56;98669.97;341307;29;1320;-68
2022/03/31 00:43:04;;;;;;;373.83;185.45;;;;;;;14.53;56.41;98666.59;342906;28;2271;-68
2022/03/31 00:43:14;;;;;;;373.13;185.87;;;;;;;14.52;56.38;98669.34;343901;28;1847;-68
2022/03/31 00:43:25;;;;;;;375.15;188.02;;;;;;;14.53;56.55;98676.28;343894;28;1212;-68
2022/03/31 00:43:35;;;;;;;375.85;187.23;;;;;;;14.54;56.78;98672.69;344690;28;2005;-68
2022/03/31 00:43:46;;;;;;;379.30;191.47;;;;;;;14.53;56.67;98668.38;341298;29;870;-68
2022/03/31 00:43:56;;;;;;;382.40;193.85;;;;;;;14.53;56.44;98674.50;341304;29;909;-68
2022/03/31 00:44:06;;;;;;;382.27;193.63;;;;;;;14.54;56.55;98668.28;342452;28;1335;-68
2022/03/31 00:44:17;;;;;;;382.03;192.10;;;;;;;14.51;56.58;98672.91;342511;28;1298;-68
2022/03/31 00:44:27;;;;;;;380.08;190.13;;;;;;;14.53;56.76;98673.66;343724;28;1275;-68
2022/03/31 00:44:38;;;;;;;379.98;193.32;;;;;;;14.54;56.51;98675.34;343722;28;1843;-69
2022/03/31 00:44:49;;;;;;;379.80;190.83;;;;;;;14.53;56.47;98668.38;342514;28;1788;-69
2022/03/31 00:44:59;;;;;;;378.65;185.27;;;;;;;14.52;56.62;98667.53;343714;28;2250;-69
2022/03/31 00:45:32;;;;;;;382.85;184.50;;;;;;;14.54;56.66;98670.91;343130;28;2469;-69
2022/03/31 00:45:48;;;;;;;379.48;189.65;;;;;;;14.52;56.45;98670.19;341141;29;917;-69
2022/03/31 00:45:58;;;;;;;376.80;189.80;;;;;;;14.44;56.84;98664.63;341178;28;1326;-69
2022/03/31 00:46:09;;;;;;;374.67;188.77;;;;;;;14.39;56.90;98665.88;342515;28;1225;-69
2022/03/31 00:46:22;;;;;;;376.50;189.98;;;;;;;14.39;57.15;98666.72;343951;28;948;-69
2022/03/31 00:46:33;;;;;;;382.35;188.95;;;;;;;14.36;57.09;98666.09;341052;28;1955;-69
2022/03/31 00:46:50;;;;;;;381.73;187.20;;;;;;;14.39;56.93;98661.44;341206;28;1358;-69
2022/03/31 00:47:00;;;;;;;376.25;182.25;;;;;;;14.39;56.96;98656.19;339987;29;1014;-68
2022/03/31 00:47:11;;;;;;;375.30;182.57;;;;;;;14.40;57.01;98663.13;342596;28;824;-69
2022/03/31 00:47:22;;;;;;;372.30;180.43;;;;;;;14.40;56.97;98662.28;342490;28;2268;-69
2022/03/31 00:47:34;;;;;;;373.03;182.10;;;;;;;14.37;57.05;98659.88;342263;28;2063;-69
2022/03/31 00:47:45;;;;;;;373.58;182.70;;;;;;;14.36;57.11;98658.19;344403;28;2610;-69
2022/03/31 00:47:56;;;;;;;375.83;186.07;;;;;;;14.29;57.06;98660.44;342578;28;1782;-69
2022/03/31 00:48:06;;;;;;;373.65;184.93;;;;;;;14.24;57.52;98655.50;341927;28;1602;-69
2022/03/31 00:48:18;;;;;;;372.30;184.07;;;;;;;14.24;57.55;98658.13;340941;28;1641;-69
2022/03/31 00:48:29;;;;;;;373.45;185.13;;;;;;;14.24;57.61;98662.56;342475;28;1556;-69
2022/03/31 00:48:39;;;;;;;375.83;187.03;;;;;;;14.25;57.56;98658.97;343840;28;1301;-69
2022/03/31 00:48:49;;;;;;;376.30;189.07;;;;;;;14.28;57.40;98654.34;343943;28;842;-69
2022/03/31 00:49:01;;;;;;;375.55;189.07;;;;;;;14.33;57.14;98661.88;339911;29;927;-69
2022/03/31 00:49:13;;;;;;;372.67;183.63;;;;;;;14.37;57.49;98658.06;341079;29;3127;-68
2022/03/31 00:49:24;;;;;;;373.13;177.60;;;;;;;14.36;57.36;98655.56;341291;29;858;-68
2022/03/31 00:49:34;;;;;;;372.85;176.35;;;;;;;14.36;57.33;98655.56;343944;28;896;-68
2022/03/31 00:49:45;;;;;;;376.53;180.13;;;;;;;14.37;57.42;98654.59;343915;28;1302;-68
2022/03/31 00:49:55;;;;;;;377.50;184.07;;;;;;;14.37;57.29;98657.22;343995;28;1118;-68
2022/03/31 00:50:06;;;;;;;376.93;183.90;;;;;;;14.36;57.15;98650.28;340813;29;837;-68
2022/03/31 00:50:17;;;;;;;375.52;181.82;;;;;;;14.37;57.29;98651.97;341216;29;932;-68
2022/03/31 00:50:28;;;;;;;373.90;181.00;;;;;;;14.38;57.35;98649.22;343731;28;1083;-68
2022/03/31 00:50:38;;;;;;;375.63;180.45;;;;;;;14.40;57.21;98649.97;345264;28;897;-68
2022/03/31 00:50:48;;;;;;;378.60;183.97;;;;;;;14.45;56.98;98649.66;343962;28;833;-68
2022/03/31 00:50:59;;;;;;;380.17;185.70;;;;;;;14.47;57.15;98645.97;343830;28;901;-68
2022/03/31 00:51:09;;;;;;;381.80;187.80;;;;;;;14.50;57.07;98648.38;340374;29;1809;-68
2022/03/31 00:51:19;;;;;;;380.20;186.57;;;;;;;14.53;56.87;98652.59;343624;28;1084;-68